x

Pensacola - 115nm Ese Of Pensacola, Fl (42039) Wave Buoy

1:50am - Fri 1st Aug 2014 All times are CDT. -5 hours from GMT.

  • Sig Wave height 0.7ft
  • Average Period 5s
  • Wind
    2mph
  • Sea Temp 85°f
  • Air Temp 81°f
  • Sea Pressure 1014.7mb
  • Pensacola - 115nm Ese Of Pensacola, Fl
  • Pensacola - 115nm Ese Of Pensacola, Fl

More Historic Weather Station data

Upgrade to MSW Pro to gain access to the past 30 days of data for over 8000 Wavebouys and Weather Stations around the globe.

Join Pro

Comparision Forecast

View Surf forecast
   
Fri 08/01 1:50am 0.7ft  -  5s 2
mph
1014.7mb 85f 81f
12:50am 0.7ft  -  4s 2
mph
1015mb 85f 81f
Thu 07/31 11:50pm 0.7ft  -  4s 2 4 mph 1015.6mb 85f 82f
10:50pm 0.7ft  -  4s 2 4 mph 1016.1mb 85f 82f
9:50pm 0.7ft  -  4s 4 7 mph 1016.1mb 86f 82f
8:50pm 0.7ft  -  4s  -  2 mph 1015.9mb 86f 82f
7:50pm 0.7ft  -  4s 4 9 mph 1015.3mb 86f 82f
6:50pm 1ft 9s 3s 7 9 mph 1015.4mb 86f 82f
5:50pm 1ft 8s 3s 9 11 mph 1015.4mb 86f 83f
4:50pm 1ft 9s 5s 9 11 mph 1015.8mb 87f 82f
3:50pm 1ft 9s 5s 9 11 mph 1015.7mb 87f 82f
2:50pm 1ft 9s 6s 4 9 mph 1016.1mb 87f 82f
1:50pm 0.7ft  -  5s 4 7 mph 1016.7mb 87f 82f
12:50pm 0.7ft  -  5s 4 7 mph 1016.8mb 86f 82f
11:50am 0.7ft  -  5s 7
mph
1016.5mb 86f 82f
10:50am 0.7ft  -  5s 7 9 mph 1016.7mb 85f 82f
9:50am 0.7ft  -  5s 7
mph
1016.7mb 85f 82f
7:50am 0.7ft  -  4s 4
mph
1016mb 85f 82f
6:50am 0.7ft  -  4s 4 7 mph 1015.5mb 85f 82f
5:50am 0.7ft  -  4s 7 9 mph 1015.4mb 85f 81f
4:50am 1ft 9s 4s 4 7 mph 1014.9mb 85f 81f
3:50am 1ft 8s 4s 4 7 mph 1014.7mb 85f 81f
2:50am 1ft 8s 4s 7 9 mph 1014.9mb 85f 82f
1:50am 1ft 3s 4s 4 7 mph 1015.1mb 85f 82f
12:50am 1ft 4s 4s 2 4 mph 1015.6mb 85f 82f
Wed 07/30 11:50pm 1.3ft 4s 4s 4 7 mph 1015.9mb 85f 82f
10:50pm 1.3ft 4s 4s 9 11 mph 1016.2mb 85f 82f
9:50pm 1.3ft 4s 4s 4 7 mph 1016.1mb 85f 82f
8:50pm 1.3ft 4s 4s 7 9 mph 1015.8mb 86f 82f
7:50pm 1.6ft 4s 4s 7 9 mph 1015.5mb 86f 83f
6:50pm 1.6ft 4s 4s 9 11 mph 1015.3mb 87f 84f
5:50pm 1.6ft 4s 4s 4
mph
1015mb 88f 85f
4:50pm 1.6ft 4s 4s 2 4 mph 1015.1mb 88f 85f
3:50pm 2ft 4s 4s 2
mph
1015.4mb 88f 84f
2:50pm 2ft 4s 4s 2 4 mph 1015.8mb 88f 84f
1:50pm 1.6ft 4s 4s 2
mph
1016.1mb 87f 83f
12:50pm 1.6ft 5s 4s 2
mph
1016.6mb 86f 83f
11:50am 1.6ft 4s 4s 4
mph
1016.8mb 86f 83f
10:50am 1.3ft 5s 4s 2
mph
1016.8mb 86f 84f
9:50am 1.3ft 3s 4s 2
mph
1016.5mb 85f 84f
8:50am 1.3ft 4s 4s 4 7 mph 1016.2mb 85f 84f
7:50am 1.6ft 4s 4s 4 7 mph 1016mb 85f 84f
6:50am 1.6ft 4s 4s 4 7 mph 1015.7mb 85f 84f
5:50am 1.6ft 3s 4s 7 9 mph 1015.3mb 85f 83f
4:50am 1.6ft 3s 4s 7 9 mph 1014.8mb 85f 83f
3:50am 2ft 4s 4s 7 9 mph 1014.8mb 85f 83f
2:50am 2ft 4s 4s 7 9 mph 1014.9mb 85f 83f
1:50am 2.5ft 4s 4s 9 11 mph 1015.2mb 85f 83f
12:50am 2.5ft 4s 4s 11 16 mph 1015.4mb 85f 83f
Tue 07/29 11:50pm 2.5ft 4s 4s 11 13 mph 1015.4mb 85f 84f
10:50pm 2.5ft 4s 4s 9 11 mph 1015.7mb 85f 84f
9:50pm 3ft 6s 4s 11 13 mph 1015.6mb 85f 83f
8:50pm 3ft 7s 4s 11 13 mph 1015.4mb 85f 83f
7:50pm 3ft 6s 4s 11 13 mph 1014.7mb 85f 83f
6:50pm 3ft 6s 4s 11 16 mph 1014.2mb 85f 83f
5:50pm 3ft 5s 4s 11 13 mph 1014mb 85f 83f
4:50pm 3ft 6s 4s 9 13 mph 1014.5mb 85f 83f
3:50pm 3.5ft 6s 5s 11 13 mph 1014.4mb 85f 83f
2:50pm 4ft 6s 4s 13 16 mph 1014.4mb 85f 83f
1:50pm 4ft 6s 4s 16 18 mph 1014.8mb 85f 82f
12:50pm 3.5ft 6s 4s 20 25 mph 1015.5mb 85f 81f
11:50am 2.5ft 6s 4s 11 13 mph 1015.7mb 85f 83f
10:50am 3.5ft 5s 5s 9 11 mph 1015.9mb 85f 83f
9:50am 3ft 6s 4s 11 13 mph 1015.6mb 84f 82f
8:50am 3.5ft 6s 4s 7 9 mph 1015mb 84f 81f
7:50am 4ft 5s 4s 9
mph
1015mb 84f 79f
6:50am 4ft 5s 4s 11 13 mph 1015.2mb 84f 79f
5:50am 4.5ft 5s 4s 11 16 mph 1014.3mb 85f 77f
4:50am 4.5ft 5s 4s 20 22 mph 1013.1mb 85f 84f
3:50am 4ft 5s 4s 20 25 mph 1012.9mb 85f 84f
2:50am 4ft 5s 4s 20 25 mph 1013.4mb 85f 84f
1:50am 4ft 5s 4s 18 22 mph 1014.5mb 85f 85f
12:50am 3.5ft 5s 4s 18 22 mph 1014.9mb 85f 85f
Mon 07/28 11:50pm 4ft 5s 4s 18 20 mph 1015.2mb 85f 85f
10:50pm 4ft 5s 4s 20 22 mph 1015.1mb 85f 85f
9:50pm 3.5ft 5s 4s 16 20 mph 1015.3mb 85f 85f
8:50pm 3.5ft 5s 4s 16 18 mph 1015.4mb 85f 85f
7:50pm 3.5ft 5s 4s 18 20 mph 1015.1mb 85f 85f
6:50pm 3.5ft 6s 4s 18 22 mph 1014.8mb 85f 85f
5:50pm 3.5ft 6s 4s 18 22 mph 1014.8mb 85f 85f
4:50pm 3.5ft 5s 4s 18 22 mph 1015.1mb 85f 85f
3:50pm 3.5ft 5s 4s 18 20 mph 1015.7mb 85f 85f
2:50pm 4ft 6s 4s 18 20 mph 1016.4mb 85f 84f
1:50pm 4.5ft 5s 4s 18 20 mph 1017mb 85f 83f
12:50pm 4.5ft 5s 4s 20 25 mph 1017.5mb 85f 81f
11:50am 3.5ft 5s 4s 16 20 mph 1018.2mb 85f 84f
10:50am 4ft 5s 4s 16 22 mph 1018.4mb 85f 82f
9:50am 3.5ft 5s 4s 22 27 mph 1018.2mb 85f 82f
8:50am 3.5ft 5s 4s 16 20 mph 1017.6mb 85f 85f